sensor_id;sensor_type;location;lat;lon;timestamp;pressure;altitude;pressure_sealevel;temperature;humidity
41334;BME280;27078;46.428;6.256;2024-03-23T00:54:32;96226.47;;;9.81;61.55
41334;BME280;27078;46.428;6.256;2024-03-23T00:56:58;96225.66;;;9.67;61.56
41334;BME280;27078;46.428;6.256;2024-03-23T00:59:23;96220.88;;;9.59;61.32
41334;BME280;27078;46.428;6.256;2024-03-23T01:01:52;96221.97;;;9.72;59.74
41334;BME280;27078;46.428;6.256;2024-03-23T01:04:20;96213.56;;;9.77;60.64
41334;BME280;27078;46.428;6.256;2024-03-23T01:06:46;96201.53;;;9.81;59.41
41334;BME280;27078;46.428;6.256;2024-03-23T01:09:12;96197.13;;;9.80;60.06
41334;BME280;27078;46.428;6.256;2024-03-23T01:11:38;96213.63;;;9.85;59.79
41334;BME280;27078;46.428;6.256;2024-03-23T01:14:04;96211.06;;;10.03;59.06
41334;BME280;27078;46.428;6.256;2024-03-23T01:16:29;96211.31;;;10.15;58.37
41334;BME280;27078;46.428;6.256;2024-03-23T01:18:54;96213.16;;;10.33;57.84
41334;BME280;27078;46.428;6.256;2024-03-23T01:21:20;96210.56;;;10.37;57.66
41334;BME280;27078;46.428;6.256;2024-03-23T01:23:45;96207.72;;;10.28;58.08
41334;BME280;27078;46.428;6.256;2024-03-23T01:26:11;96207.28;;;10.21;58.60
41334;BME280;27078;46.428;6.256;2024-03-23T01:28:36;96207.28;;;10.21;59.14
41334;BME280;27078;46.428;6.256;2024-03-23T01:31:02;96209.53;;;10.19;59.27
41334;BME280;27078;46.428;6.256;2024-03-23T01:33:27;96210.69;;;10.18;59.49
41334;BME280;27078;46.428;6.256;2024-03-23T01:35:52;96196.81;;;10.18;59.01
41334;BME280;27078;46.428;6.256;2024-03-23T01:38:18;96199.59;;;10.18;59.57
41334;BME280;27078;46.428;6.256;2024-03-23T01:40:43;96199.28;;;10.20;59.01
41334;BME280;27078;46.428;6.256;2024-03-23T01:43:08;96198.56;;;10.28;59.26
41334;BME280;27078;46.428;6.256;2024-03-23T01:45:34;96200.53;;;10.27;58.54
41334;BME280;27078;46.428;6.256;2024-03-23T01:48:00;96202.25;;;10.23;59.14
41334;BME280;27078;46.428;6.256;2024-03-23T01:50:27;96179.97;;;10.28;58.99
41334;BME280;27078;46.428;6.256;2024-03-23T01:52:53;96183.63;;;10.37;58.32
41334;BME280;27078;46.428;6.256;2024-03-23T01:55:19;96184.84;;;10.45;57.68
41334;BME280;27078;46.428;6.256;2024-03-23T01:57:45;96185.16;;;10.44;57.37
41334;BME280;27078;46.428;6.256;2024-03-23T02:00:10;96182.06;;;10.45;58.24
41334;BME280;27078;46.428;6.256;2024-03-23T02:02:44;96181.75;;;10.47;57.39
41334;BME280;27078;46.428;6.256;2024-03-23T02:05:11;96179.16;;;10.50;58.26
41334;BME280;27078;46.428;6.256;2024-03-23T02:07:40;96182.13;;;10.54;57.58
41334;BME280;27078;46.428;6.256;2024-03-23T02:10:07;96178.22;;;10.55;56.85
41334;BME280;27078;46.428;6.256;2024-03-23T02:12:33;96180.44;;;10.67;57.14
41334;BME280;27078;46.428;6.256;2024-03-23T02:14:58;96178.31;;;10.72;56.30
41334;BME280;27078;46.428;6.256;2024-03-23T02:17:24;96181.72;;;10.92;56.36
41334;BME280;27078;46.428;6.256;2024-03-23T02:19:50;96185.38;;;11.01;56.43
41334;BME280;27078;46.428;6.256;2024-03-23T02:22:15;96177.13;;;11.18;56.34
41334;BME280;27078;46.428;6.256;2024-03-23T02:24:41;96173.44;;;11.40;55.96
41334;BME280;27078;46.428;6.256;2024-03-23T02:27:06;96172.31;;;11.50;55.83
41334;BME280;27078;46.428;6.256;2024-03-23T02:29:31;96171.84;;;11.48;55.38
41334;BME280;27078;46.428;6.256;2024-03-23T02:31:57;96174.13;;;11.46;55.77
41334;BME280;27078;46.428;6.256;2024-03-23T02:34:24;96172.69;;;11.57;55.56
41334;BME280;27078;46.428;6.256;2024-03-23T02:36:49;96172.06;;;11.69;55.40
41334;BME280;27078;46.428;6.256;2024-03-23T02:39:14;96174.22;;;11.72;55.26
41334;BME280;27078;46.428;6.256;2024-03-23T02:41:40;96165.06;;;11.80;55.62
41334;BME280;27078;46.428;6.256;2024-03-23T02:44:05;96159.84;;;11.87;54.99
41334;BME280;27078;46.428;6.256;2024-03-23T02:46:31;96161.84;;;11.95;54.30
41334;BME280;27078;46.428;6.256;2024-03-23T02:48:56;96167.06;;;11.97;54.47
41334;BME280;27078;46.428;6.256;2024-03-23T02:51:22;96154.00;;;11.89;54.90
41334;BME280;27078;46.428;6.256;2024-03-23T02:53:47;96164.75;;;11.81;55.08
41334;BME280;27078;46.428;6.256;2024-03-23T02:56:12;96159.50;;;11.80;55.47
41334;BME280;27078;46.428;6.256;2024-03-23T02:58:41;96176.50;;;11.78;56.01
41334;BME280;27078;46.428;6.256;2024-03-23T03:01:06;96162.75;;;11.73;55.85
41334;BME280;27078;46.428;6.256;2024-03-23T03:03:32;96175.31;;;11.71;56.52
41334;BME280;27078;46.428;6.256;2024-03-23T03:05:57;96165.53;;;11.65;55.91
41334;BME280;27078;46.428;6.256;2024-03-23T03:08:23;96154.88;;;11.58;56.48
41334;BME280;27078;46.428;6.256;2024-03-23T03:10:48;96152.06;;;11.49;56.12
41334;BME280;27078;46.428;6.256;2024-03-23T03:13:14;96158.91;;;11.43;56.19
41334;BME280;27078;46.428;6.256;2024-03-23T03:15:45;96154.97;;;11.35;56.71
41334;BME280;27078;46.428;6.256;2024-03-23T03:18:10;96156.41;;;11.24;56.77
41334;BME280;27078;46.428;6.256;2024-03-23T03:20:39;96157.50;;;11.15;56.99
41334;BME280;27078;46.428;6.256;2024-03-23T03:23:05;96153.69;;;11.02;57.66
41334;BME280;27078;46.428;6.256;2024-03-23T03:25:30;96150.84;;;10.93;57.84
41334;BME280;27078;46.428;6.256;2024-03-23T03:27:56;96143.47;;;10.88;57.82
41334;BME280;27078;46.428;6.256;2024-03-23T03:30:21;96148.16;;;10.79;58.28
41334;BME280;27078;46.428;6.256;2024-03-23T03:32:46;96145.97;;;10.68;58.47
41334;BME280;27078;46.428;6.256;2024-03-23T03:35:12;96144.03;;;10.68;59.15
41334;BME280;27078;46.428;6.256;2024-03-23T03:37:37;96140.84;;;10.83;59.71
41334;BME280;27078;46.428;6.256;2024-03-23T03:40:03;96134.00;;;10.90;60.30
41334;BME280;27078;46.428;6.256;2024-03-23T03:42:28;96128.97;;;10.92;60.64
41334;BME280;27078;46.428;6.256;2024-03-23T03:44:54;96131.59;;;10.97;59.49
41334;BME280;27078;46.428;6.256;2024-03-23T03:47:19;96125.25;;;11.05;59.50
41334;BME280;27078;46.428;6.256;2024-03-23T03:49:44;96106.16;;;11.12;60.04
41334;BME280;27078;46.428;6.256;2024-03-23T03:52:10;96110.75;;;11.08;60.67
41334;BME280;27078;46.428;6.256;2024-03-23T03:54:36;96102.88;;;11.10;60.38
41334;BME280;27078;46.428;6.256;2024-03-23T03:57:01;96104.03;;;11.09;60.56
41334;BME280;27078;46.428;6.256;2024-03-23T03:59:27;96112.88;;;11.11;61.16
41334;BME280;27078;46.428;6.256;2024-03-23T04:01:52;96113.53;;;11.17;61.37
41334;BME280;27078;46.428;6.256;2024-03-23T04:04:17;96117.00;;;11.22;62.32
41334;BME280;27078;46.428;6.256;2024-03-23T04:06:43;96111.50;;;11.40;61.16
41334;BME280;27078;46.428;6.256;2024-03-23T04:09:09;96108.09;;;11.60;59.85
41334;BME280;27078;46.428;6.256;2024-03-23T04:11:35;96093.56;;;11.72;60.43
41334;BME280;27078;46.428;6.256;2024-03-23T04:14:00;96094.88;;;11.83;60.37
41334;BME280;27078;46.428;6.256;2024-03-23T04:16:33;96085.72;;;11.82;62.38
41334;BME280;27078;46.428;6.256;2024-03-23T04:18:59;96079.19;;;11.78;63.96
41334;BME280;27078;46.428;6.256;2024-03-23T04:21:25;96076.72;;;11.77;63.16
41334;BME280;27078;46.428;6.256;2024-03-23T04:23:50;96089.31;;;11.74;63.83
41334;BME280;27078;46.428;6.256;2024-03-23T04:26:15;96098.97;;;11.68;64.39
41334;BME280;27078;46.428;6.256;2024-03-23T04:28:41;96112.19;;;11.63;65.62
41334;BME280;27078;46.428;6.256;2024-03-23T04:31:06;96139.66;;;11.55;67.28
41334;BME280;27078;46.428;6.256;2024-03-23T04:33:32;96134.56;;;11.49;69.00
41334;BME280;27078;46.428;6.256;2024-03-23T04:35:57;96126.53;;;11.47;68.70
41334;BME280;27078;46.428;6.256;2024-03-23T04:38:22;96124.75;;;11.43;68.98
41334;BME280;27078;46.428;6.256;2024-03-23T04:40:58;96140.94;;;11.49;66.99
41334;BME280;27078;46.428;6.256;2024-03-23T04:43:23;96147.31;;;11.50;67.34
41334;BME280;27078;46.428;6.256;2024-03-23T04:45:49;96153.69;;;11.50;66.32
41334;BME280;27078;46.428;6.256;2024-03-23T04:48:14;96165.50;;;11.56;65.92
41334;BME280;27078;46.428;6.256;2024-03-23T04:50:40;96167.09;;;11.48;66.66
41334;BME280;27078;46.428;6.256;2024-03-23T04:53:06;96176.91;;;11.46;66.23
41334;BME280;27078;46.428;6.256;2024-03-23T04:55:32;96180.66;;;11.41;66.73
41334;BME280;27078;46.428;6.256;2024-03-23T04:57:57;96197.78;;;11.34;64.86
41334;BME280;27078;46.428;6.256;2024-03-23T05:00:23;96224.66;;;11.17;63.84
41334;BME280;27078;46.428;6.256;2024-03-23T05:02:48;96192.94;;;10.86;67.16
41334;BME280;27078;46.428;6.256;2024-03-23T05:05:14;96191.53;;;10.67;64.13
41334;BME280;27078;46.428;6.256;2024-03-23T05:07:39;96266.81;;;10.51;64.64
41334;BME280;27078;46.428;6.256;2024-03-23T05:10:07;96227.41;;;10.40;64.11
41334;BME280;27078;46.428;6.256;2024-03-23T05:12:35;96210.00;;;10.49;63.06
41334;BME280;27078;46.428;6.256;2024-03-23T05:15:01;96207.09;;;10.54;63.30
41334;BME280;27078;46.428;6.256;2024-03-23T05:17:26;96190.94;;;10.56;64.00
41334;BME280;27078;46.428;6.256;2024-03-23T05:19:51;96185.75;;;10.63;63.37
41334;BME280;27078;46.428;6.256;2024-03-23T05:22:16;96177.13;;;10.64;63.44
41334;BME280;27078;46.428;6.256;2024-03-23T05:24:42;96187.63;;;10.68;63.02
41334;BME280;27078;46.428;6.256;2024-03-23T05:27:07;96180.63;;;10.70;62.44
41334;BME280;27078;46.428;6.256;2024-03-23T05:29:32;96181.38;;;10.62;62.14
41334;BME280;27078;46.428;6.256;2024-03-23T05:31:58;96179.72;;;10.61;62.33
41334;BME280;27078;46.428;6.256;2024-03-23T05:34:23;96177.44;;;10.63;61.83
41334;BME280;27078;46.428;6.256;2024-03-23T05:36:50;96190.94;;;10.56;61.91
41334;BME280;27078;46.428;6.256;2024-03-23T05:39:16;96175.13;;;10.56;59.53
41334;BME280;27078;46.428;6.256;2024-03-23T05:41:47;96177.44;;;10.63;57.82
41334;BME280;27078;46.428;6.256;2024-03-23T05:44:12;96186.63;;;10.63;58.39
41334;BME280;27078;46.428;6.256;2024-03-23T05:46:37;96177.13;;;10.64;57.13
41334;BME280;27078;46.428;6.256;2024-03-23T05:49:03;96187.78;;;10.71;57.61
41334;BME280;27078;46.428;6.256;2024-03-23T05:51:28;96213.94;;;10.70;57.73
41334;BME280;27078;46.428;6.256;2024-03-23T05:53:53;96224.63;;;10.63;58.32
41334;BME280;27078;46.428;6.256;2024-03-23T05:56:19;96191.47;;;10.58;59.44
41334;BME280;27078;46.428;6.256;2024-03-23T05:58:45;96197.53;;;10.60;57.64
41334;BME280;27078;46.428;6.256;2024-03-23T06:01:11;96208.81;;;10.63;58.53
41334;BME280;27078;46.428;6.256;2024-03-23T06:03:46;96215.00;;;10.60;58.35
41334;BME280;27078;46.428;6.256;2024-03-23T06:06:11;96233.28;;;10.61;57.83
41334;BME280;27078;46.428;6.256;2024-03-23T06:08:38;96233.91;;;10.58;57.78
41334;BME280;27078;46.428;6.256;2024-03-23T06:11:04;96223.06;;;10.48;58.20
41334;BME280;27078;46.428;6.256;2024-03-23T06:13:31;96245.06;;;10.45;58.05
41334;BME280;27078;46.428;6.256;2024-03-23T06:15:57;96257.41;;;10.38;58.33
41334;BME280;27078;46.428;6.256;2024-03-23T06:18:23;96239.41;;;10.36;59.11
41334;BME280;27078;46.428;6.256;2024-03-23T06:20:49;96246.53;;;10.28;59.79
41334;BME280;27078;46.428;6.256;2024-03-23T06:23:14;96250.47;;;10.27;59.99
41334;BME280;27078;46.428;6.256;2024-03-23T06:25:40;96260.00;;;10.21;60.23
41334;BME280;27078;46.428;6.256;2024-03-23T06:28:06;96315.47;;;10.21;60.19
41334;BME280;27078;46.428;6.256;2024-03-23T06:30:31;96269.44;;;10.20;60.21
41334;BME280;27078;46.428;6.256;2024-03-23T06:32:57;96273.03;;;10.21;59.05
41334;BME280;27078;46.428;6.256;2024-03-23T06:35:23;96290.50;;;10.21;59.79
41334;BME280;27078;46.428;6.256;2024-03-23T06:37:48;96291.03;;;10.23;59.02
41334;BME280;27078;46.428;6.256;2024-03-23T06:40:13;96297.28;;;10.29;58.42
41334;BME280;27078;46.428;6.256;2024-03-23T06:42:39;96289.16;;;10.32;58.04
41334;BME280;27078;46.428;6.256;2024-03-23T06:45:05;96311.06;;;10.34;58.44
41334;BME280;27078;46.428;6.256;2024-03-23T06:47:31;96301.94;;;10.33;58.77
41334;BME280;27078;46.428;6.256;2024-03-23T06:49:57;96322.47;;;10.32;59.34
41334;BME280;27078;46.428;6.256;2024-03-23T06:52:22;96336.75;;;10.39;59.76
41334;BME280;27078;46.428;6.256;2024-03-23T06:54:47;96366.75;;;10.37;58.37
41334;BME280;27078;46.428;6.256;2024-03-23T06:57:13;96398.41;;;10.36;59.65
41334;BME280;27078;46.428;6.256;2024-03-23T06:59:38;96348.69;;;10.26;59.42
41334;BME280;27078;46.428;6.256;2024-03-23T07:02:05;96389.63;;;10.15;60.88
41334;BME280;27078;46.428;6.256;2024-03-23T07:04:30;96350.91;;;9.97;61.91
41334;BME280;27078;46.428;6.256;2024-03-23T07:06:55;96405.72;;;9.72;62.57
41334;BME280;27078;46.428;6.256;2024-03-23T07:09:21;96408.44;;;9.58;63.55
41334;BME280;27078;46.428;6.256;2024-03-23T07:11:51;96408.63;;;9.48;64.21
41334;BME280;27078;46.428;6.256;2024-03-23T07:14:16;96402.09;;;9.25;63.49
41334;BME280;27078;46.428;6.256;2024-03-23T07:16:42;96432.19;;;9.13;64.17
41334;BME280;27078;46.428;6.256;2024-03-23T07:19:07;96388.28;;;9.06;65.73
41334;BME280;27078;46.428;6.256;2024-03-23T07:21:32;96384.09;;;8.90;63.72
41334;BME280;27078;46.428;6.256;2024-03-23T07:23:57;96387.38;;;8.92;65.55
41334;BME280;27078;46.428;6.256;2024-03-23T07:26:23;96401.16;;;8.78;64.54
41334;BME280;27078;46.428;6.256;2024-03-23T07:28:48;96432.03;;;8.66;65.08
41334;BME280;27078;46.428;6.256;2024-03-23T07:31:14;96425.75;;;8.61;65.49
41334;BME280;27078;46.428;6.256;2024-03-23T07:33:44;96437.66;;;8.61;66.49
41334;BME280;27078;46.428;6.256;2024-03-23T07:36:10;96448.72;;;8.61;68.18
41334;BME280;27078;46.428;6.256;2024-03-23T07:38:36;96448.63;;;8.66;66.02
41334;BME280;27078;46.428;6.256;2024-03-23T07:41:05;96428.75;;;8.64;64.86
41334;BME280;27078;46.428;6.256;2024-03-23T07:43:30;96423.34;;;8.73;63.05
41334;BME280;27078;46.428;6.256;2024-03-23T07:45:56;96406.38;;;8.80;61.13
41334;BME280;27078;46.428;6.256;2024-03-23T07:48:22;96442.59;;;8.83;61.45
41334;BME280;27078;46.428;6.256;2024-03-23T07:53:33;96477.91;;;8.91;60.14
41334;BME280;27078;46.428;6.256;2024-03-23T07:56:00;96435.25;;;8.92;60.05
41334;BME280;27078;46.428;6.256;2024-03-23T07:58:26;96409.22;;;8.93;60.64
41334;BME280;27078;46.428;6.256;2024-03-23T08:00:55;96420.53;;;8.78;60.31
41334;BME280;27078;46.428;6.256;2024-03-23T08:03:21;96405.78;;;8.83;57.95
41334;BME280;27078;46.428;6.256;2024-03-23T08:05:47;96420.38;;;8.88;58.35
41334;BME280;27078;46.428;6.256;2024-03-23T08:08:13;96430.88;;;8.91;57.80
41334;BME280;27078;46.428;6.256;2024-03-23T08:10:51;96437.72;;;8.94;57.09
41334;BME280;27078;46.428;6.256;2024-03-23T08:13:17;96444.25;;;9.03;59.20
41334;BME280;27078;46.428;6.256;2024-03-23T08:15:43;96453.09;;;9.05;54.94
41334;BME280;27078;46.428;6.256;2024-03-23T08:18:10;96458.84;;;9.09;55.65
41334;BME280;27078;46.428;6.256;2024-03-23T08:20:35;96460.31;;;9.20;56.71
41334;BME280;27078;46.428;6.256;2024-03-23T08:23:01;96458.69;;;9.19;55.04
41334;BME280;27078;46.428;6.256;2024-03-23T08:25:26;96485.03;;;9.16;55.79
41334;BME280;27078;46.428;6.256;2024-03-23T08:27:52;96458.59;;;9.24;54.81
41334;BME280;27078;46.428;6.256;2024-03-23T08:30:17;96486.44;;;8.95;54.97
41334;BME280;27078;46.428;6.256;2024-03-23T08:32:42;96483.97;;;8.93;55.90
41334;BME280;27078;46.428;6.256;2024-03-23T08:35:08;96500.06;;;9.10;56.90
41334;BME280;27078;46.428;6.256;2024-03-23T08:37:33;96509.88;;;9.03;55.07
41334;BME280;27078;46.428;6.256;2024-03-23T08:39:59;96537.69;;;8.92;54.66
41334;BME280;27078;46.428;6.256;2024-03-23T08:42:24;96508.28;;;8.78;53.34
41334;BME280;27078;46.428;6.256;2024-03-23T08:44:49;96508.72;;;8.85;54.53
41334;BME280;27078;46.428;6.256;2024-03-23T08:47:15;96508.22;;;9.02;53.30
41334;BME280;27078;46.428;6.256;2024-03-23T08:49:41;96502.25;;;9.32;54.86
41334;BME280;27078;46.428;6.256;2024-03-23T08:52:06;96515.69;;;9.58;52.92
41334;BME280;27078;46.428;6.256;2024-03-23T08:54:32;96492.59;;;9.49;46.86
41334;BME280;27078;46.428;6.256;2024-03-23T08:56:57;96491.88;;;9.57;45.91
41334;BME280;27078;46.428;6.256;2024-03-23T08:59:22;96508.72;;;9.60;45.72
41334;BME280;27078;46.428;6.256;2024-03-23T09:01:49;96492.09;;;9.79;45.70
41334;BME280;27078;46.428;6.256;2024-03-23T09:04:14;96518.84;;;10.03;48.72
41334;BME280;27078;46.428;6.256;2024-03-23T09:06:42;96503.25;;;10.07;48.19
41334;BME280;27078;46.428;6.256;2024-03-23T09:09:08;96499.88;;;10.24;47.83
41334;BME280;27078;46.428;6.256;2024-03-23T09:11:33;96505.66;;;10.27;46.67
41334;BME280;27078;46.428;6.256;2024-03-23T09:13:58;96529.41;;;10.33;45.40
41334;BME280;27078;46.428;6.256;2024-03-23T09:16:24;96508.47;;;10.08;45.94
41334;BME280;27078;46.428;6.256;2024-03-23T09:18:49;96485.25;;;10.04;49.80
41334;BME280;27078;46.428;6.256;2024-03-23T09:21:14;96517.31;;;10.10;50.14
41334;BME280;27078;46.428;6.256;2024-03-23T09:23:43;96500.91;;;9.81;48.09
41334;BME280;27078;46.428;6.256;2024-03-23T09:26:08;96475.59;;;9.36;49.94
41334;BME280;27078;46.428;6.256;2024-03-23T09:28:34;96532.69;;;8.94;50.32
41334;BME280;27078;46.428;6.256;2024-03-23T09:31:03;96521.66;;;8.89;50.48
41334;BME280;27078;46.428;6.256;2024-03-23T09:33:28;96588.00;;;8.75;50.63
41334;BME280;27078;46.428;6.256;2024-03-23T09:35:54;96507.91;;;8.84;50.52
41334;BME280;27078;46.428;6.256;2024-03-23T09:38:21;96545.91;;;8.97;50.21
41334;BME280;27078;46.428;6.256;2024-03-23T09:40:48;96570.81;;;8.97;49.39
41334;BME280;27078;46.428;6.256;2024-03-23T09:43:15;96592.59;;;8.85;48.68
41334;BME280;27078;46.428;6.256;2024-03-23T09:45:40;96564.97;;;8.80;48.79
41334;BME280;27078;46.428;6.256;2024-03-23T09:48:09;96585.03;;;8.67;47.97
41334;BME280;27078;46.428;6.256;2024-03-23T09:50:38;96586.97;;;8.66;48.74
41334;BME280;27078;46.428;6.256;2024-03-23T09:53:05;96557.59;;;8.70;47.94
41334;BME280;27078;46.428;6.256;2024-03-23T09:55:31;96601.22;;;8.55;45.33
41334;BME280;27078;46.428;6.256;2024-03-23T09:57:56;96628.78;;;8.65;47.41
41334;BME280;27078;46.428;6.256;2024-03-23T10:00:23;96592.03;;;8.59;44.44
41334;BME280;27078;46.428;6.256;2024-03-23T10:02:48;96655.63;;;8.64;43.25
41334;BME280;27078;46.428;6.256;2024-03-23T10:05:21;96622.59;;;8.73;43.85
41334;BME280;27078;46.428;6.256;2024-03-23T10:07:50;96606.06;;;8.68;40.79
41334;BME280;27078;46.428;6.256;2024-03-23T10:10:16;96598.13;;;8.85;44.55
41334;BME280;27078;46.428;6.256;2024-03-23T10:12:45;96618.91;;;9.07;44.34
41334;BME280;27078;46.428;6.256;2024-03-23T10:15:23;96582.13;;;9.25;46.76
41334;BME280;27078;46.428;6.256;2024-03-23T10:17:49;96582.84;;;9.31;44.75
41334;BME280;27078;46.428;6.256;2024-03-23T10:20:22;96584.25;;;9.52;46.27
41334;BME280;27078;46.428;6.256;2024-03-23T10:22:48;96587.47;;;9.59;43.92
41334;BME280;27078;46.428;6.256;2024-03-23T10:25:15;96592.41;;;9.62;44.33
41334;BME280;27078;46.428;6.256;2024-03-23T10:27:40;96594.28;;;9.86;44.50
41334;BME280;27078;46.428;6.256;2024-03-23T10:30:11;96590.91;;;9.89;43.54
41334;BME280;27078;46.428;6.256;2024-03-23T10:32:37;96595.31;;;9.90;43.14
41334;BME280;27078;46.428;6.256;2024-03-23T10:35:16;96588.06;;;10.08;46.76
41334;BME280;27078;46.428;6.256;2024-03-23T10:37:44;96593.38;;;10.23;44.14
41334;BME280;27078;46.428;6.256;2024-03-23T10:40:11;96596.91;;;10.29;43.52
41334;BME280;27078;46.428;6.256;2024-03-23T10:42:38;96573.72;;;10.52;47.13
41334;BME280;27078;46.428;6.256;2024-03-23T10:45:07;96597.50;;;10.58;44.08
41334;BME280;27078;46.428;6.256;2024-03-23T10:47:34;96575.31;;;10.72;48.83
41334;BME280;27078;46.428;6.256;2024-03-23T10:50:01;96596.06;;;10.61;41.81
41334;BME280;27078;46.428;6.256;2024-03-23T10:52:26;96592.16;;;10.76;41.94
41334;BME280;27078;46.428;6.256;2024-03-23T10:54:52;96606.22;;;10.52;39.12
41334;BME280;27078;46.428;6.256;2024-03-23T10:57:21;96598.22;;;10.50;39.34
41334;BME280;27078;46.428;6.256;2024-03-23T10:59:48;96583.59;;;10.45;41.85
41334;BME280;27078;46.428;6.256;2024-03-23T11:02:21;96583.34;;;10.27;37.66
41334;BME280;27078;46.428;6.256;2024-03-23T11:04:47;96575.25;;;10.45;42.51
41334;BME280;27078;46.428;6.256;2024-03-23T11:09:54;96576.22;;;10.68;40.15
41334;BME280;27078;46.428;6.256;2024-03-23T11:14:45;96582.94;;;10.80;37.65
41334;BME280;27078;46.428;6.256;2024-03-23T11:17:11;96569.66;;;10.77;37.54
41334;BME280;27078;46.428;6.256;2024-03-23T11:19:37;96574.91;;;10.93;41.71
41334;BME280;27078;46.428;6.256;2024-03-23T11:22:03;96572.63;;;11.08;42.52
41334;BME280;27078;46.428;6.256;2024-03-23T11:24:30;96567.06;;;11.22;41.30
41334;BME280;27078;46.428;6.256;2024-03-23T11:26:55;96558.09;;;11.39;39.83
41334;BME280;27078;46.428;6.256;2024-03-23T11:29:20;96585.72;;;11.08;36.07
41334;BME280;27078;46.428;6.256;2024-03-23T11:31:50;96572.09;;;11.20;38.33
41334;BME280;27078;46.428;6.256;2024-03-23T11:34:16;96565.09;;;11.37;39.60
41334;BME280;27078;46.428;6.256;2024-03-23T11:36:43;96582.31;;;11.25;36.74
41334;BME280;27078;46.428;6.256;2024-03-23T11:39:19;96567.41;;;11.07;35.49
41334;BME280;27078;46.428;6.256;2024-03-23T11:41:56;96562.25;;;11.00;37.13
41334;BME280;27078;46.428;6.256;2024-03-23T11:44:23;96549.06;;;11.06;40.78
41334;BME280;27078;46.428;6.256;2024-03-23T11:46:50;96564.81;;;10.97;36.62
41334;BME280;27078;46.428;6.256;2024-03-23T11:49:26;96565.13;;;11.09;38.58
41334;BME280;27078;46.428;6.256;2024-03-23T11:51:53;96569.44;;;11.15;37.67
41334;BME280;27078;46.428;6.256;2024-03-23T11:54:25;96556.81;;;10.95;33.81
41334;BME280;27078;46.428;6.256;2024-03-23T11:59:40;96542.25;;;11.26;37.78
41334;BME280;27078;46.428;6.256;2024-03-23T12:02:07;96533.53;;;11.19;37.06
41334;BME280;27078;46.428;6.256;2024-03-23T12:04:33;96528.22;;;11.45;35.99
41334;BME280;27078;46.428;6.256;2024-03-23T12:07:11;96533.06;;;11.39;34.80
41334;BME280;27078;46.428;6.256;2024-03-23T12:09:37;96536.38;;;11.41;35.43
41334;BME280;27078;46.428;6.256;2024-03-23T12:12:18;96530.91;;;11.36;31.85
41334;BME280;27078;46.428;6.256;2024-03-23T12:15:07;96526.44;;;11.13;33.09
41334;BME280;27078;46.428;6.256;2024-03-23T12:17:33;96521.06;;;11.16;34.69
41334;BME280;27078;46.428;6.256;2024-03-23T12:20:00;96534.41;;;11.42;36.04
41334;BME280;27078;46.428;6.256;2024-03-23T12:22:25;96534.38;;;11.55;37.35
41334;BME280;27078;46.428;6.256;2024-03-23T12:24:51;96541.13;;;11.63;38.32
41334;BME280;27078;46.428;6.256;2024-03-23T12:27:16;96546.69;;;11.63;38.47
41334;BME280;27078;46.428;6.256;2024-03-23T12:29:42;96546.75;;;11.86;37.74
41334;BME280;27078;46.428;6.256;2024-03-23T12:32:12;96526.41;;;11.99;40.30
41334;BME280;27078;46.428;6.256;2024-03-23T12:34:38;96551.38;;;11.90;37.68
41334;BME280;27078;46.428;6.256;2024-03-23T12:37:03;96561.75;;;11.62;33.29
41334;BME280;27078;46.428;6.256;2024-03-23T12:39:29;96531.41;;;11.88;37.88
41334;BME280;27078;46.428;6.256;2024-03-23T12:41:54;96545.97;;;11.71;33.33
41334;BME280;27078;46.428;6.256;2024-03-23T12:44:20;96534.47;;;11.50;34.29
41334;BME280;27078;46.428;6.256;2024-03-23T12:46:46;96509.66;;;11.54;35.99
41334;BME280;27078;46.428;6.256;2024-03-23T12:49:11;96509.16;;;11.74;36.56
41334;BME280;27078;46.428;6.256;2024-03-23T12:51:37;96509.06;;;11.79;36.44
41334;BME280;27078;46.428;6.256;2024-03-23T12:54:02;96497.53;;;11.86;33.15
41334;BME280;27078;46.428;6.256;2024-03-23T12:56:28;96493.84;;;11.99;33.79
41334;BME280;27078;46.428;6.256;2024-03-23T12:58:54;96458.22;;;12.10;37.07
41334;BME280;27078;46.428;6.256;2024-03-23T13:01:20;96477.00;;;12.04;36.08
41334;BME280;27078;46.428;6.256;2024-03-23T13:03:49;96494.91;;;12.12;34.91
41334;BME280;27078;46.428;6.256;2024-03-23T13:06:16;96471.50;;;12.13;36.14
41334;BME280;27078;46.428;6.256;2024-03-23T13:08:44;96475.06;;;12.05;32.39
41334;BME280;27078;46.428;6.256;2024-03-23T13:11:09;96478.31;;;11.98;32.18
41334;BME280;27078;46.428;6.256;2024-03-23T13:13:36;96477.59;;;11.93;32.36
41334;BME280;27078;46.428;6.256;2024-03-23T13:16:01;96469.06;;;11.89;35.23
41334;BME280;27078;46.428;6.256;2024-03-23T13:18:28;96467.44;;;11.88;31.83
41334;BME280;27078;46.428;6.256;2024-03-23T13:20:54;96473.75;;;12.02;35.14
41334;BME280;27078;46.428;6.256;2024-03-23T13:23:19;96480.19;;;11.89;34.56
41334;BME280;27078;46.428;6.256;2024-03-23T13:25:55;96492.81;;;11.73;34.39
41334;BME280;27078;46.428;6.256;2024-03-23T13:28:24;96491.81;;;11.69;35.57
41334;BME280;27078;46.428;6.256;2024-03-23T13:30:53;96472.25;;;11.60;32.85
41334;BME280;27078;46.428;6.256;2024-03-23T13:33:19;96464.44;;;11.62;36.35
41334;BME280;27078;46.428;6.256;2024-03-23T13:35:55;96472.72;;;11.76;33.59
41334;BME280;27078;46.428;6.256;2024-03-23T13:38:21;96478.69;;;11.47;31.05
41334;BME280;27078;46.428;6.256;2024-03-23T13:40:53;96467.66;;;11.55;34.04
41334;BME280;27078;46.428;6.256;2024-03-23T13:43:19;96453.56;;;11.52;32.52
41334;BME280;27078;46.428;6.256;2024-03-23T13:45:47;96453.94;;;11.59;34.83
41334;BME280;27078;46.428;6.256;2024-03-23T13:48:12;96453.50;;;11.43;32.51
41334;BME280;27078;46.428;6.256;2024-03-23T13:50:37;96446.72;;;11.35;36.29
41334;BME280;27078;46.428;6.256;2024-03-23T13:53:03;96453.47;;;11.21;33.31
41334;BME280;27078;46.428;6.256;2024-03-23T13:55:28;96456.63;;;10.92;32.67
41334;BME280;27078;46.428;6.256;2024-03-23T13:57:54;96446.34;;;10.78;32.88
41334;BME280;27078;46.428;6.256;2024-03-23T14:00:19;96459.22;;;10.74;33.69
41334;BME280;27078;46.428;6.256;2024-03-23T14:02:45;96490.69;;;10.83;34.19